Time;durP1;ratioP1;P1;durP2;ratioP2;P2;SDS_P1;SDS_P2;PMS_P1;PMS_P2;Temp;Humidity;BMP_temperature;BMP_pressure;BME280_temperature;BME280_humidity;BME280_pressure;Samples;Min_cycle;Max_cycle;Signal;HPM_P1;HPM_P2
2022/08/12 00:42:57;;;;;;;1.42;0.40;;;19.20;99.90;;;;;;5067891;28;21993;-83
2022/08/12 00:45:22;;;;;;;1.90;0.40;;;19.10;99.90;;;;;;5087378;28;20034;-82
2022/08/12 00:47:50;;;;;;;2.03;0.30;;;19.00;99.90;;;;;;5056064;28;20031;-82
2022/08/12 00:50:18;;;;;;;0.70;0.30;;;19.00;99.90;;;;;;5071598;28;20047;-81
2022/08/12 00:52:46;;;;;;;0.60;0.30;;;18.90;99.90;;;;;;5076797;28;20480;-83
2022/08/12 00:55:12;;;;;;;1.70;0.30;;;18.90;99.90;;;;;;5070364;28;20507;-83
2022/08/12 00:57:43;;;;;;;1.98;0.30;;;18.90;99.90;;;;;;5067375;28;20024;-81
2022/08/12 01:00:20;;;;;;;1.05;0.40;;;18.80;99.90;;;;;;5070569;28;20704;-82
2022/08/12 01:02:50;;;;;;;1.90;0.30;;;18.80;99.90;;;;;;5071691;28;20059;-81
2022/08/12 01:13:38;;;;;;;2.03;0.40;;;18.80;99.90;;;;;;5086170;28;20115;-84
2022/08/12 01:16:06;;;;;;;1.52;0.35;;;18.70;99.90;;;;;;5052346;28;20101;-82
2022/08/12 01:18:35;;;;;;;2.22;0.38;;;18.70;99.90;;;;;;5070775;28;20028;-81
2022/08/12 01:21:16;;;;;;;1.25;0.40;;;18.60;99.90;;;;;;5052085;28;20442;-82
2022/08/12 01:23:53;;;;;;;1.23;0.30;;;18.50;99.90;;;;;;5050920;28;20039;-81
2022/08/12 01:26:22;;;;;;;1.80;0.30;;;18.60;99.90;;;;;;5069356;28;20025;-82
2022/08/12 01:28:51;;;;;;;1.03;0.30;;;18.60;99.90;;;;;;5046667;28;20043;-82
2022/08/12 01:31:18;;;;;;;1.80;0.40;;;18.50;99.90;;;;;;5078572;28;20304;-82
2022/08/12 01:33:59;;;;;;;0.65;0.32;;;18.60;99.90;;;;;;5083583;28;20286;-82
2022/08/12 01:36:27;;;;;;;0.90;0.30;;;18.50;99.90;;;;;;5083055;28;20728;-83
2022/08/12 01:39:00;;;;;;;1.58;0.40;;;18.50;99.90;;;;;;5068593;28;20040;-83
2022/08/12 01:41:30;;;;;;;0.88;0.40;;;18.50;99.90;;;;;;5065691;28;20032;-82
2022/08/12 01:44:01;;;;;;;1.33;0.40;;;18.50;99.90;;;;;;5081933;28;20038;-84
2022/08/12 01:46:46;;;;;;;0.80;0.30;;;18.50;99.90;;;;;;5062034;28;20102;-82
2022/08/12 01:50:08;;;;;;;1.27;0.40;;;18.40;99.90;;;;;;5049377;28;20067;-82
2022/08/12 01:53:10;;;;;;;4.03;0.50;;;18.40;99.90;;;;;;4994142;28;20037;-81
2022/08/12 01:55:38;;;;;;;0.73;0.30;;;18.50;99.90;;;;;;4967049;28;20042;-84
2022/08/12 02:01:22;;;;;;;2.13;0.50;;;18.40;99.90;;;;;;4972855;28;20395;-81
2022/08/12 02:13:04;;;;;;;1.30;0.43;;;18.30;99.90;;;;;;4971731;28;20042;-81
2022/08/12 02:15:43;;;;;;;1.48;0.50;;;18.30;99.90;;;;;;4981667;28;20050;-80
2022/08/12 02:18:21;;;;;;;1.10;0.40;;;18.30;99.90;;;;;;4971027;28;20202;-83
2022/08/12 02:21:04;;;;;;;1.58;0.40;;;18.30;99.90;;;;;;4966982;28;20062;-81
2022/08/12 02:23:30;;;;;;;1.73;0.60;;;18.40;99.90;;;;;;4955551;28;20629;-83
2022/08/12 02:26:03;;;;;;;1.30;0.55;;;18.30;99.90;;;;;;4994020;28;20102;-84
2022/08/12 02:28:30;;;;;;;1.83;0.40;;;18.30;99.90;;;;;;5065562;28;20405;-83
2022/08/12 02:31:00;;;;;;;2.67;0.50;;;18.20;99.90;;;;;;5062853;28;20062;-84
2022/08/12 02:33:26;;;;;;;1.38;0.30;;;18.20;99.90;;;;;;5042200;28;20024;-83
2022/08/12 02:35:53;;;;;;;1.30;0.50;;;18.20;99.90;;;;;;5061800;28;20025;-83
2022/08/12 02:38:20;;;;;;;2.25;0.50;;;18.10;99.90;;;;;;5050744;28;20044;-81
2022/08/12 02:40:51;;;;;;;1.00;0.50;;;18.10;99.90;;;;;;5052065;28;20028;-82
2022/08/12 02:43:26;;;;;;;1.17;0.57;;;18.10;99.90;;;;;;5074800;28;20039;-80
2022/08/12 02:45:56;;;;;;;1.80;0.50;;;18.10;99.90;;;;;;5085178;28;20383;-82
2022/08/12 02:48:44;;;;;;;1.27;0.52;;;18.10;99.90;;;;;;5085000;28;20067;-80
2022/08/12 02:51:15;;;;;;;1.25;0.65;;;18.10;99.90;;;;;;5065703;28;20504;-86
2022/08/12 02:53:43;;;;;;;1.20;0.50;;;18.10;99.90;;;;;;5048883;28;20550;-87
2022/08/12 02:56:11;;;;;;;1.42;0.40;;;18.10;99.90;;;;;;5079465;28;20028;-82
2022/08/12 02:58:37;;;;;;;1.95;0.60;;;18.00;99.90;;;;;;5065642;28;20028;-81
2022/08/12 03:01:09;;;;;;;1.10;0.50;;;18.00;99.90;;;;;;5046717;28;20067;-82
2022/08/12 03:03:36;;;;;;;1.60;0.57;;;18.00;99.90;;;;;;5064619;28;20476;-80
2022/08/12 03:06:07;;;;;;;2.25;0.50;;;18.00;99.90;;;;;;5049095;28;20020;-83
2022/08/12 03:08:42;;;;;;;1.20;0.50;;;17.90;99.90;;;;;;5063474;28;20477;-82
2022/08/12 03:11:20;;;;;;;1.60;0.60;;;17.90;99.90;;;;;;5068484;28;20024;-83
2022/08/12 03:13:58;;;;;;;1.27;0.50;;;17.80;99.90;;;;;;5075299;28;20024;-85
2022/08/12 03:16:29;;;;;;;1.08;0.50;;;17.70;99.90;;;;;;5064092;28;20119;-82
2022/08/12 03:18:55;;;;;;;2.42;0.52;;;17.70;99.90;;;;;;5047757;28;20119;-82
2022/08/12 03:21:23;;;;;;;1.35;0.57;;;17.70;99.90;;;;;;5074524;28;20040;-82
2022/08/12 03:23:53;;;;;;;1.60;0.50;;;17.60;99.90;;;;;;5065180;28;20679;-84
2022/08/12 03:26:24;;;;;;;1.40;0.47;;;17.70;99.90;;;;;;5051010;28;20127;-80
2022/08/12 03:28:56;;;;;;;1.40;0.60;;;17.60;99.90;;;;;;5070244;28;20032;-81
2022/08/12 03:31:31;;;;;;;1.30;0.50;;;17.50;99.90;;;;;;5068408;28;20493;-83
2022/08/12 03:34:03;;;;;;;1.10;0.52;;;17.50;99.90;;;;;;5048136;28;20028;-84
2022/08/12 03:36:33;;;;;;;1.75;0.65;;;17.50;99.90;;;;;;5065613;28;20033;-88
2022/08/12 03:41:52;;;;;;;1.33;0.80;;;17.40;99.90;;;;;;5083465;28;20475;-81
2022/08/12 04:01:21;;;;;;;2.38;0.70;;;17.20;99.90;;;;;;5087172;28;20042;-84
2022/08/12 04:03:51;;;;;;;2.15;0.70;;;17.10;99.90;;;;;;5061964;28;20020;-80
2022/08/12 04:06:28;;;;;;;4.63;0.98;;;17.10;99.90;;;;;;5056394;28;20438;-82
2022/08/12 04:08:56;;;;;;;2.53;0.88;;;17.10;99.90;;;;;;5081059;28;20040;-81
2022/08/12 04:14:13;;;;;;;3.10;0.75;;;17.10;99.90;;;;;;5082064;28;20042;-83
2022/08/12 04:16:39;;;;;;;2.38;0.75;;;17.10;99.90;;;;;;5071153;28;20039;-81
2022/08/12 04:19:06;;;;;;;1.33;0.60;;;17.00;99.90;;;;;;5055001;28;20024;-84
2022/08/12 04:21:33;;;;;;;2.97;0.77;;;17.00;99.90;;;;;;5077015;28;20024;-82
2022/08/12 04:24:00;;;;;;;1.25;0.60;;;17.00;99.90;;;;;;5054288;28;20502;-85
2022/08/12 04:26:26;;;;;;;1.85;0.77;;;17.00;99.90;;;;;;5086817;28;20070;-81
2022/08/12 04:28:55;;;;;;;2.40;0.88;;;17.00;99.90;;;;;;5055088;28;20028;-87
2022/08/12 04:31:33;;;;;;;2.67;0.70;;;17.00;99.90;;;;;;5061392;28;20415;-86
2022/08/12 04:33:59;;;;;;;3.88;0.98;;;17.00;99.90;;;;;;5052264;28;20027;-88
2022/08/12 04:36:25;;;;;;;2.67;0.73;;;17.00;99.90;;;;;;5072178;28;20383;-81
2022/08/12 04:38:53;;;;;;;1.88;0.80;;;17.00;99.90;;;;;;5049143;28;20086;-80
2022/08/12 04:41:20;;;;;;;1.58;0.90;;;17.00;99.90;;;;;;5065933;28;20064;-82
2022/08/12 04:43:46;;;;;;;1.48;0.68;;;17.00;99.90;;;;;;5053649;28;20032;-85
2022/08/12 04:46:12;;;;;;;2.65;0.90;;;17.00;99.90;;;;;;5067091;28;20020;-84
2022/08/12 04:48:38;;;;;;;3.65;1.00;;;16.90;99.90;;;;;;5066685;28;20111;-82
2022/08/12 04:51:04;;;;;;;2.30;1.00;;;16.90;99.90;;;;;;5049862;28;20476;-87
2022/08/12 04:53:31;;;;;;;1.38;0.70;;;17.00;99.90;;;;;;5054280;28;20329;-86
2022/08/12 04:55:56;;;;;;;2.05;0.70;;;17.00;99.90;;;;;;5070462;28;20028;-86
2022/08/12 04:58:22;;;;;;;1.90;0.60;;;17.00;99.90;;;;;;5083977;28;20059;-88
2022/08/12 05:00:52;;;;;;;2.65;0.82;;;17.10;99.90;;;;;;5053851;28;20051;-83
2022/08/12 05:03:18;;;;;;;1.98;0.93;;;17.20;99.90;;;;;;5061327;28;20028;-86
2022/08/12 05:05:44;;;;;;;1.42;0.70;;;17.20;99.90;;;;;;5057807;28;20342;-82
2022/08/12 05:08:15;;;;;;;1.40;0.80;;;17.30;99.90;;;;;;5064526;28;20162;-88
2022/08/12 05:10:46;;;;;;;2.20;1.10;;;17.30;99.90;;;;;;5064493;28;20040;-89
2022/08/12 05:13:17;;;;;;;2.72;0.80;;;17.40;99.90;;;;;;5056008;28;20039;-87
2022/08/12 05:15:46;;;;;;;1.77;0.88;;;17.40;99.90;;;;;;5042675;28;20039;-88
2022/08/12 05:18:13;;;;;;;2.30;0.80;;;17.40;99.90;;;;;;5043924;28;20032;-87
2022/08/12 05:20:42;;;;;;;1.80;0.77;;;17.40;99.90;;;;;;5044428;28;20278;-84
2022/08/12 05:23:10;;;;;;;2.10;0.95;;;17.50;99.90;;;;;;5078018;28;20104;-88
2022/08/12 05:25:35;;;;;;;2.72;1.10;;;17.50;99.90;;;;;;5080464;28;20020;-88
2022/08/12 05:28:02;;;;;;;2.33;0.95;;;17.50;99.90;;;;;;5078696;28;20024;-84
2022/08/12 05:30:29;;;;;;;2.30;1.20;;;17.50;99.90;;;;;;5066285;28;20039;-81
2022/08/12 05:32:56;;;;;;;3.33;1.25;;;17.60;99.90;;;;;;5047901;28;20082;-87
2022/08/12 05:35:22;;;;;;;3.30;1.20;;;17.70;99.90;;;;;;5074128;28;20093;-86
2022/08/12 05:38:54;;;;;;;3.00;1.35;;;17.70;99.90;;;;;;5066182;28;20452;-83
2022/08/12 05:41:26;;;;;;;4.70;1.30;;;17.80;99.90;;;;;;5087885;27;20400;-81
2022/08/12 05:44:01;;;;;;;2.05;0.98;;;17.90;99.90;;;;;;5058812;28;20029;-83
2022/08/12 05:46:29;;;;;;;2.10;0.98;;;17.90;99.90;;;;;;5056629;28;20106;-82
2022/08/12 05:48:55;;;;;;;3.88;1.48;;;18.00;99.90;;;;;;5080197;28;20363;-83
2022/08/12 05:51:25;;;;;;;2.47;1.42;;;18.10;99.90;;;;;;5078769;28;20096;-85
2022/08/12 05:53:52;;;;;;;2.03;0.95;;;18.10;99.90;;;;;;5075355;28;20121;-87
2022/08/12 05:56:27;;;;;;;5.13;1.00;;;18.20;99.90;;;;;;5092813;28;20055;-82
2022/08/12 05:58:55;;;;;;;2.45;1.10;;;18.30;99.90;;;;;;5072668;28;20082;-86
2022/08/12 06:01:22;;;;;;;3.25;1.52;;;18.40;99.90;;;;;;5057578;28;20040;-84
2022/08/12 06:03:49;;;;;;;2.20;1.13;;;18.50;99.90;;;;;;5060696;28;20039;-83
2022/08/12 06:06:16;;;;;;;2.90;0.90;;;18.60;99.90;;;;;;5055623;28;20036;-82
2022/08/12 06:08:47;;;;;;;2.47;1.20;;;18.70;99.90;;;;;;5061601;28;20024;-81
2022/08/12 06:11:17;;;;;;;1.92;0.70;;;18.80;99.90;;;;;;5053188;28;20017;-85
2022/08/12 06:13:44;;;;;;;2.42;1.08;;;19.00;99.90;;;;;;5058992;28;20028;-88
2022/08/12 06:16:13;;;;;;;2.90;1.20;;;19.20;99.90;;;;;;5078189;28;20385;-86
2022/08/12 06:18:40;;;;;;;2.15;1.30;;;19.30;99.90;;;;;;5061769;28;20024;-82
2022/08/12 06:21:12;;;;;;;5.32;1.20;;;19.50;99.90;;;;;;5061044;28;20043;-84
2022/08/12 06:23:38;;;;;;;2.22;1.30;;;19.70;99.90;;;;;;5072933;28;20414;-88
2022/08/12 06:26:07;;;;;;;2.92;1.02;;;19.90;99.90;;;;;;5060255;28;20025;-83
2022/08/12 06:28:32;;;;;;;2.53;1.38;;;20.10;99.90;;;;;;5074037;28;20020;-85
2022/08/12 06:30:58;;;;;;;2.60;0.98;;;20.20;99.90;;;;;;5072581;28;20062;-84
2022/08/12 06:33:24;;;;;;;3.83;2.50;;;20.40;99.90;;;;;;5074947;28;20021;-87
2022/08/12 06:35:51;;;;;;;3.08;0.80;;;20.50;99.90;;;;;;5062071;28;22092;-83
2022/08/12 06:38:23;;;;;;;2.65;0.93;;;20.70;99.90;;;;;;5077294;28;20468;-84
2022/08/12 06:43:42;;;;;;;2.47;1.30;;;21.10;99.90;;;;;;5078159;28;20035;-84
2022/08/12 06:46:09;;;;;;;3.92;2.33;;;21.50;99.90;;;;;;5058892;28;20044;-83
2022/08/12 06:48:36;;;;;;;3.58;1.48;;;21.40;99.90;;;;;;5006150;28;20140;-86
2022/08/12 06:51:03;;;;;;;2.45;1.33;;;21.60;99.90;;;;;;5044337;28;20026;-86
2022/08/12 06:53:32;;;;;;;2.75;1.33;;;22.00;99.90;;;;;;5039876;28;20021;-84
2022/08/12 06:55:59;;;;;;;2.13;1.40;;;22.20;99.90;;;;;;5024702;28;20359;-84
2022/08/12 06:58:31;;;;;;;2.70;1.00;;;22.20;99.90;;;;;;5035693;28;20130;-85
2022/08/12 07:00:58;;;;;;;2.17;0.95;;;22.50;99.90;;;;;;5038223;28;20055;-85
2022/08/12 07:03:29;;;;;;;1.35;0.65;;;22.80;99.90;;;;;;5037229;28;20092;-81
2022/08/12 07:06:08;;;;;;;4.18;1.13;;;23.00;99.90;;;;;;5040108;28;20049;-84
2022/08/12 07:08:34;;;;;;;;;;;23.10;99.90;;;;;;5036120;28;20045;-82
2022/08/12 07:11:03;;;;;;;3.13;0.88;;;23.40;99.90;;;;;;5025488;28;20357;-83
2022/08/12 07:13:34;;;;;;;2.10;0.98;;;23.50;99.90;;;;;;5043875;28;20063;-82
2022/08/12 07:16:01;;;;;;;1.98;1.23;;;23.50;99.90;;;;;;5039494;28;20041;-82
2022/08/12 07:18:33;;;;;;;2.20;1.20;;;23.50;99.90;;;;;;5038195;28;20026;-82
2022/08/12 07:21:04;;;;;;;3.00;0.90;;;23.80;99.90;;;;;;5027826;28;20131;-86
2022/08/12 07:23:35;;;;;;;1.60;0.90;;;23.90;99.90;;;;;;5039808;28;20028;-82
2022/08/12 07:26:02;;;;;;;1.48;0.90;;;24.10;99.90;;;;;;5032503;28;20057;-81
2022/08/12 07:28:32;;;;;;;1.92;1.02;;;24.30;99.90;;;;;;5035527;28;20030;-82
2022/08/12 07:30:58;;;;;;;2.67;1.00;;;24.50;99.90;;;;;;5037881;28;20037;-83
2022/08/12 07:33:27;;;;;;;3.53;1.30;;;24.50;99.90;;;;;;5041279;28;20048;-83
2022/08/12 07:35:56;;;;;;;1.55;0.93;;;24.50;99.90;;;;;;5035461;28;20482;-82
2022/08/12 07:38:32;;;;;;;2.00;0.73;;;24.90;99.90;;;;;;5034903;28;20037;-84
2022/08/12 07:41:20;;;;;;;2.92;0.82;;;25.00;99.90;;;;;;5038138;28;20056;-86
2022/08/12 07:43:48;;;;;;;2.00;0.90;;;25.30;99.90;;;;;;5034930;28;20357;-82
2022/08/12 07:46:17;;;;;;;2.67;0.80;;;25.70;99.90;;;;;;5018143;28;20030;-84
2022/08/12 07:48:45;;;;;;;2.30;0.80;;;25.80;99.90;;;;;;5036992;28;20060;-83
2022/08/12 07:51:12;;;;;;;2.50;0.80;;;26.10;99.90;;;;;;5036985;28;20034;-82
2022/08/12 07:53:38;;;;;;;4.18;0.70;;;26.20;99.90;;;;;;5036328;28;20057;-85
2022/08/12 07:56:08;;;;;;;2.47;0.60;;;26.20;99.90;;;;;;5035693;28;20159;-83
2022/08/12 07:58:37;;;;;;;;;;;26.30;99.90;;;;;;5037522;28;20039;-85
2022/08/12 08:01:04;;;;;;;1.90;0.55;;;26.50;99.90;;;;;;5018243;28;20012;-83
2022/08/12 08:03:30;;;;;;;2.60;0.50;;;26.70;99.90;;;;;;5033124;28;20056;-85
2022/08/12 08:05:57;;;;;;;1.55;0.60;;;27.00;99.90;;;;;;5035756;28;20044;-86
2022/08/12 08:08:27;;;;;;;3.67;0.40;;;27.00;99.90;;;;;;5048101;28;20346;-84
2022/08/12 08:12:52;;;;;;;1.20;0.40;;;27.40;99.90;;;;;;5022630;28;20033;-83
2022/08/12 08:13:44;;;;;;;1.15;0.40;;;27.50;99.90;;;;;;5035202;28;20083;-83
2022/08/12 08:16:11;;;;;;;2.38;0.55;;;27.40;99.90;;;;;;5035139;28;20094;-85
2022/08/12 08:18:37;;;;;;;1.48;0.43;;;27.70;99.90;;;;;;5040759;28;20029;-83
2022/08/12 08:21:03;;;;;;;2.20;0.40;;;27.80;99.90;;;;;;5035089;28;20051;-83
2022/08/12 08:26:15;;;;;;;1.88;0.40;;;28.20;99.90;;;;;;5034862;28;20439;-84
2022/08/12 08:28:42;;;;;;;1.95;0.38;;;28.40;99.90;;;;;;5032919;28;20036;-85
2022/08/12 08:31:08;;;;;;;0.90;0.40;;;28.40;99.90;;;;;;5036194;28;20041;-83
2022/08/12 08:33:34;;;;;;;4.05;0.40;;;28.70;99.90;;;;;;5033354;28;20030;-84
2022/08/12 08:36:00;;;;;;;1.55;0.38;;;29.00;99.90;;;;;;5033320;28;20180;-84
2022/08/12 08:38:25;;;;;;;2.03;0.43;;;29.00;99.90;;;;;;5035841;28;20035;-84
2022/08/12 08:43:35;;;;;;;1.65;0.35;;;29.20;99.90;;;;;;5034603;28;20075;-84
2022/08/12 08:46:04;;;;;;;0.80;0.30;;;29.50;99.90;;;;;;5034452;28;20033;-83
2022/08/12 08:48:32;;;;;;;3.15;0.30;;;29.40;99.90;;;;;;5047720;28;20029;-82
2022/08/12 08:50:58;;;;;;;2.63;0.35;;;29.60;99.90;;;;;;5034951;28;20040;-85
2022/08/12 08:53:24;;;;;;;1.42;0.30;;;29.50;99.90;;;;;;5040411;28;20114;-84
2022/08/12 08:55:52;;;;;;;4.53;0.40;;;29.50;99.90;;;;;;5033114;28;20078;-84
2022/08/12 08:58:20;;;;;;;1.25;0.32;;;29.80;99.90;;;;;;5031984;28;20029;-83
2022/08/12 09:00:49;;;;;;;0.68;0.32;;;29.90;99.90;;;;;;5040709;28;20033;-85
2022/08/12 09:03:16;;;;;;;0.75;0.30;;;29.90;99.70;;;;;;5034665;28;20033;-83
2022/08/12 09:05:41;;;;;;;1.63;0.40;;;30.20;99.90;;;;;;5032035;28;20037;-84
2022/08/12 09:08:08;;;;;;;1.05;0.35;;;30.40;99.90;;;;;;5039916;28;20516;-84
2022/08/12 09:10:34;;;;;;;1.25;0.28;;;30.50;99.30;;;;;;5037496;28;20128;-83
2022/08/12 09:15:46;;;;;;;2.63;0.30;;;30.40;98.70;;;;;;5031201;28;20029;-84
2022/08/12 09:18:12;;;;;;;1.20;0.35;;;30.50;98.70;;;;;;5035883;28;20030;-83
2022/08/12 09:20:39;;;;;;;1.02;0.30;;;30.80;98.50;;;;;;5032060;28;20072;-86
2022/08/12 09:23:10;;;;;;;2.15;0.30;;;30.70;98.50;;;;;;5030979;28;20028;-83
2022/08/12 09:25:37;;;;;;;1.77;0.35;;;30.90;98.40;;;;;;5032634;28;20060;-84
2022/08/12 09:28:03;;;;;;;3.03;0.47;;;30.90;97.70;;;;;;5040947;28;20509;-83
2022/08/12 09:30:29;;;;;;;3.05;0.40;;;31.10;97.40;;;;;;5038058;28;20072;-83
2022/08/12 09:32:55;;;;;;;1.95;0.30;;;31.20;97.50;;;;;;5032295;28;20033;-83
2022/08/12 09:35:32;;;;;;;0.63;0.30;;;31.60;96.80;;;;;;5040964;28;20115;-82
2022/08/12 09:38:00;;;;;;;1.05;0.30;;;31.80;97.50;;;;;;5033023;28;20121;-83
2022/08/12 09:40:28;;;;;;;1.40;0.40;;;31.30;96.80;;;;;;5037066;28;20141;-83
2022/08/12 09:45:44;;;;;;;2.45;0.30;;;31.60;96.00;;;;;;5032189;28;20033;-84
2022/08/12 09:48:15;;;;;;;1.25;0.30;;;31.30;95.90;;;;;;5042426;28;20029;-83
2022/08/12 09:50:41;;;;;;;0.70;0.30;;;31.30;95.80;;;;;;5033941;28;20533;-83
2022/08/12 09:53:08;;;;;;;1.38;0.30;;;31.60;96.10;;;;;;5039232;28;20096;-83
2022/08/12 09:55:34;;;;;;;1.05;0.30;;;31.60;95.30;;;;;;5035647;28;20064;-82
2022/08/12 09:58:01;;;;;;;1.30;0.22;;;31.90;95.30;;;;;;5033198;28;20103;-83
2022/08/12 10:00:27;;;;;;;0.45;0.20;;;31.60;95.20;;;;;;5018633;28;20037;-83
2022/08/12 10:02:59;;;;;;;1.48;0.30;;;31.60;94.30;;;;;;5032611;28;20037;-83
2022/08/12 10:05:25;;;;;;;0.65;0.20;;;31.60;94.50;;;;;;5039546;28;20055;-83
2022/08/12 10:07:50;;;;;;;0.55;0.30;;;31.80;95.20;;;;;;5037838;28;20035;-83
2022/08/12 10:10:16;;;;;;;0.40;0.30;;;31.80;94.50;;;;;;5030602;28;20022;-83
2022/08/12 10:15:28;;;;;;;1.70;0.30;;;32.20;94.70;;;;;;5037595;28;20448;-83
2022/08/12 10:17:54;;;;;;;0.65;0.30;;;32.10;94.10;;;;;;5036327;28;20033;-84
2022/08/12 10:20:19;;;;;;;0.85;0.20;;;32.20;94.30;;;;;;5038993;28;20493;-83
2022/08/12 10:23:06;;;;;;;1.52;0.30;;;32.10;93.80;;;;;;5023011;28;20032;-82
2022/08/12 10:31:22;;;;;;;0.80;0.22;;;32.20;93.20;;;;;;4969145;28;20027;-83
2022/08/12 10:33:48;;;;;;;0.60;0.20;;;32.60;94.00;;;;;;4950027;28;20050;-83
2022/08/12 10:36:13;;;;;;;1.60;0.30;;;32.90;93.30;;;;;;4934686;28;20028;-83
2022/08/12 10:38:39;;;;;;;1.05;0.28;;;32.90;93.00;;;;;;4950017;28;20392;-84
2022/08/12 10:43:49;;;;;;;1.65;0.25;;;32.80;93.50;;;;;;4958088;28;20030;-83
2022/08/12 10:46:17;;;;;;;0.60;0.30;;;32.80;92.40;;;;;;4970396;28;20054;-82
2022/08/12 10:48:47;;;;;;;1.17;0.30;;;32.80;92.70;;;;;;4967388;28;20413;-83
2022/08/12 10:51:17;;;;;;;0.80;0.30;;;32.90;92.60;;;;;;4971087;28;20031;-84
2022/08/12 10:53:45;;;;;;;0.75;0.30;;;32.60;92.80;;;;;;4950393;28;20451;-84
2022/08/12 10:56:11;;;;;;;1.67;0.30;;;33.00;92.70;;;;;;4966608;28;20093;-84
2022/08/12 10:58:37;;;;;;;0.50;0.20;;;33.40;93.20;;;;;;4979898;28;20111;-84
2022/08/12 11:01:05;;;;;;;1.08;0.20;;;33.90;93.20;;;;;;5034724;28;20120;-83
2022/08/12 11:03:35;;;;;;;0.70;0.20;;;33.30;92.60;;;;;;5036495;28;20033;-82
2022/08/12 11:06:01;;;;;;;0.95;0.30;;;33.10;92.40;;;;;;5035614;28;20029;-84
2022/08/12 11:08:27;;;;;;;0.90;0.30;;;33.10;92.80;;;;;;5035750;28;20029;-83
2022/08/12 11:10:53;;;;;;;0.80;0.32;;;33.50;93.20;;;;;;5034213;28;20021;-84
2022/08/12 11:13:19;;;;;;;0.65;0.20;;;33.80;92.60;;;;;;5037934;28;20067;-83
2022/08/12 11:15:45;;;;;;;1.00;0.30;;;33.40;92.50;;;;;;5017074;28;20059;-84
2022/08/12 11:18:11;;;;;;;1.25;0.30;;;33.30;92.80;;;;;;5039172;28;20033;-83
2022/08/12 11:20:37;;;;;;;0.88;0.30;;;33.40;92.80;;;;;;5048948;28;20128;-83
2022/08/12 11:23:03;;;;;;;0.60;0.28;;;33.30;92.00;;;;;;5041094;28;20109;-83
2022/08/12 11:25:29;;;;;;;0.80;0.40;;;33.20;92.80;;;;;;5035264;28;20658;-85
2022/08/12 11:27:55;;;;;;;1.30;0.20;;;33.40;92.10;;;;;;5034311;28;20057;-83
2022/08/12 11:30:21;;;;;;;2.25;0.22;;;33.80;93.20;;;;;;5032903;28;20103;-85
2022/08/12 11:32:48;;;;;;;1.35;0.28;;;33.90;92.90;;;;;;5039044;28;20017;-84
2022/08/12 11:35:14;;;;;;;1.67;0.40;;;33.50;92.10;;;;;;5041684;28;20033;-85
2022/08/12 11:37:40;;;;;;;3.33;0.35;;;32.70;92.50;;;;;;5033279;28;20214;-85
2022/08/12 11:40:06;;;;;;;0.70;0.30;;;33.00;92.40;;;;;;5035616;28;20416;-84
2022/08/12 11:42:35;;;;;;;1.65;0.22;;;33.20;92.40;;;;;;5022097;28;20033;-85
2022/08/12 11:45:02;;;;;;;2.35;0.40;;;33.70;92.20;;;;;;5036782;28;20624;-83
2022/08/12 11:47:28;;;;;;;0.88;0.30;;;33.40;91.20;;;;;;5025808;28;20079;-84
2022/08/12 11:49:53;;;;;;;1.17;0.30;;;33.50;91.50;;;;;;5021903;28;20037;-83
2022/08/12 11:52:19;;;;;;;1.55;0.30;;;33.60;91.80;;;;;;5025239;28;20043;-84
2022/08/12 11:54:45;;;;;;;0.90;0.30;;;33.50;91.60;;;;;;5032438;28;20022;-84
2022/08/12 11:57:10;;;;;;;0.85;0.30;;;34.00;91.10;;;;;;5033145;28;20068;-83
2022/08/12 11:59:36;;;;;;;0.82;0.30;;;33.70;90.90;;;;;;5049371;28;20172;-84
2022/08/12 12:02:02;;;;;;;2.25;0.30;;;33.60;91.10;;;;;;5037627;28;20036;-85
2022/08/12 12:04:27;;;;;;;2.25;0.30;;;33.70;91.10;;;;;;5038317;28;20037;-84
2022/08/12 12:06:53;;;;;;;1.55;0.30;;;34.00;91.90;;;;;;5038684;28;20030;-84
2022/08/12 12:09:18;;;;;;;1.23;0.20;;;33.90;91.30;;;;;;5037936;28;20040;-84
2022/08/12 12:11:44;;;;;;;0.60;0.22;;;33.60;91.00;;;;;;5035090;28;20036;-84
2022/08/12 12:14:10;;;;;;;0.70;0.28;;;33.50;90.80;;;;;;5038052;28;20025;-84
2022/08/12 12:16:36;;;;;;;2.05;0.30;;;33.50;91.00;;;;;;5052475;28;20041;-84
2022/08/12 12:19:04;;;;;;;1.63;0.30;;;33.50;90.80;;;;;;5041511;28;20052;-84
2022/08/12 12:21:30;;;;;;;0.40;0.20;;;33.20;90.70;;;;;;5037758;28;20044;-84
2022/08/12 12:23:55;;;;;;;0.88;0.20;;;33.30;90.40;;;;;;5042044;28;20075;-84
2022/08/12 12:26:21;;;;;;;0.60;0.20;;;33.60;90.80;;;;;;5019918;28;20083;-83
2022/08/12 12:28:48;;;;;;;0.70;0.30;;;33.80;90.50;;;;;;5031190;28;20032;-83
2022/08/12 12:31:13;;;;;;;0.88;0.30;;;33.80;90.70;;;;;;5036979;28;20029;-85
2022/08/12 12:33:39;;;;;;;1.42;0.30;;;33.60;90.40;;;;;;5014902;28;20078;-83
2022/08/12 12:36:07;;;;;;;1.05;0.40;;;33.70;90.60;;;;;;5021363;28;20052;-83
2022/08/12 12:38:33;;;;;;;1.70;0.30;;;33.60;90.70;;;;;;5039740;28;20108;-82
2022/08/12 12:40:59;;;;;;;1.20;0.30;;;33.50;90.40;;;;;;5031535;28;20145;-84
2022/08/12 12:43:24;;;;;;;0.85;0.30;;;33.40;90.20;;;;;;5034245;28;20115;-83
2022/08/12 12:45:50;;;;;;;0.95;0.30;;;33.30;90.20;;;;;;5036952;28;20461;-82
2022/08/12 12:48:18;;;;;;;1.10;0.30;;;33.20;90.30;;;;;;5030303;28;20037;-83
2022/08/12 12:51:31;;;;;;;2.10;0.30;;;33.60;90.30;;;;;;5046199;28;20516;-83
2022/08/12 12:53:40;;;;;;;0.85;0.22;;;33.60;90.80;;;;;;5025396;28;20041;-84
2022/08/12 12:56:09;;;;;;;1.95;0.30;;;33.80;90.10;;;;;;5031046;28;20025;-83
2022/08/12 12:58:36;;;;;;;1.95;0.30;;;33.90;90.10;;;;;;5031684;28;20045;-82
2022/08/12 13:01:02;;;;;;;0.77;0.30;;;33.40;89.60;;;;;;5037632;28;20041;-83
2022/08/12 13:03:31;;;;;;;0.80;0.30;;;33.30;89.90;;;;;;5047627;28;20021;-85
2022/08/12 13:05:59;;;;;;;;;;;33.60;90.30;;;;;;5030676;28;20033;-82
2022/08/12 13:08:29;;;;;;;0.30;0.10;;;33.70;89.50;;;;;;5033997;28;19913;-84
2022/08/12 13:11:01;;;;;;;0.70;0.20;;;33.90;90.10;;;;;;5031366;28;20474;-83
2022/08/12 13:13:31;;;;;;;1.67;0.20;;;33.80;88.90;;;;;;5034105;28;20133;-85
2022/08/12 13:16:00;;;;;;;0.75;0.20;;;33.70;89.60;;;;;;5038386;28;23182;-84
2022/08/12 13:18:35;;;;;;;1.42;0.28;;;33.40;89.40;;;;;;5045253;28;20036;-85
2022/08/12 13:21:05;;;;;;;1.42;0.20;;;33.30;88.10;;;;;;5031068;28;20075;-84
2022/08/12 13:23:33;;;;;;;1.30;0.30;;;33.30;89.00;;;;;;5035098;28;20091;-85
2022/08/12 13:25:59;;;;;;;0.60;0.20;;;33.40;88.10;;;;;;5019641;28;20029;-84
2022/08/12 13:28:29;;;;;;;0.95;0.20;;;33.30;89.30;;;;;;5018544;28;20544;-83
2022/08/12 13:30:59;;;;;;;1.75;0.20;;;33.60;88.80;;;;;;5033622;28;20450;-85
2022/08/12 13:33:27;;;;;;;1.40;0.30;;;33.30;88.70;;;;;;5037302;28;20036;-84
2022/08/12 13:35:59;;;;;;;1.80;0.28;;;33.60;89.50;;;;;;5033393;28;20025;-84
2022/08/12 13:38:43;;;;;;;1.90;0.20;;;33.50;88.70;;;;;;5017437;28;20069;-84
2022/08/12 13:41:31;;;;;;;0.50;0.20;;;33.30;88.20;;;;;;5033512;28;20045;-83
2022/08/12 13:44:03;;;;;;;0.65;0.20;;;33.40;87.90;;;;;;5040084;28;20036;-83
2022/08/12 13:46:29;;;;;;;0.57;0.20;;;33.40;89.30;;;;;;5029849;28;20049;-83
2022/08/12 13:48:57;;;;;;;1.13;0.28;;;33.50;88.30;;;;;;5039454;28;20052;-84
2022/08/12 13:51:23;;;;;;;0.50;0.20;;;33.20;88.30;;;;;;5037308;28;20108;-85
2022/08/12 13:53:50;;;;;;;1.10;0.20;;;33.40;87.70;;;;;;5028838;28;20515;-84
2022/08/12 13:56:16;;;;;;;0.70;0.30;;;33.20;87.70;;;;;;5033753;28;20112;-83
2022/08/12 13:58:47;;;;;;;4.72;0.50;;;33.30;88.90;;;;;;5038213;28;20040;-83
2022/08/12 14:01:14;;;;;;;0.82;0.30;;;33.20;87.10;;;;;;5032959;28;20136;-84
2022/08/12 14:03:41;;;;;;;1.50;0.30;;;33.20;88.00;;;;;;5033622;28;20025;-85
2022/08/12 14:06:07;;;;;;;0.63;0.20;;;33.50;88.20;;;;;;5020687;28;20025;-85
2022/08/12 14:08:33;;;;;;;1.60;0.30;;;33.40;87.20;;;;;;5042719;28;20029;-84
2022/08/12 14:10:59;;;;;;;0.65;0.20;;;33.10;87.40;;;;;;5033138;28;20083;-84
2022/08/12 14:13:29;;;;;;;1.10;0.30;;;33.00;87.70;;;;;;5021846;28;20427;-84
2022/08/12 14:16:02;;;;;;;0.30;0.20;;;32.90;87.30;;;;;;5022550;28;20439;-84
2022/08/12 14:18:33;;;;;;;1.25;0.20;;;32.90;87.10;;;;;;5035471;28;20102;-84
2022/08/12 14:21:01;;;;;;;0.93;0.30;;;32.70;87.60;;;;;;5036327;28;20037;-83
2022/08/12 14:23:31;;;;;;;0.40;0.20;;;32.70;87.10;;;;;;5034278;28;21837;-84
2022/08/12 14:25:59;;;;;;;0.50;0.20;;;33.00;87.40;;;;;;5035578;28;20756;-84
2022/08/12 14:28:31;;;;;;;0.73;0.20;;;32.80;87.40;;;;;;5045322;28;20044;-83
2022/08/12 14:31:01;;;;;;;0.70;0.28;;;32.70;87.80;;;;;;5035103;28;20033;-84
2022/08/12 14:33:32;;;;;;;0.63;0.20;;;32.70;87.70;;;;;;5035959;28;20025;-83
2022/08/12 14:36:00;;;;;;;1.42;0.25;;;32.70;87.60;;;;;;5052147;28;20424;-83
2022/08/12 14:38:31;;;;;;;0.75;0.20;;;32.60;87.10;;;;;;5033293;28;20323;-85
2022/08/12 14:41:01;;;;;;;1.83;0.30;;;32.70;87.00;;;;;;5036319;28;20087;-83
2022/08/12 14:43:32;;;;;;;0.38;0.15;;;32.50;87.30;;;;;;5049766;28;20040;-84
2022/08/12 14:46:00;;;;;;;0.43;0.17;;;32.80;87.00;;;;;;5024905;28;20029;-83
2022/08/12 14:48:26;;;;;;;2.00;0.30;;;32.90;87.60;;;;;;5037734;28;20481;-83